Airport View

Enter AWOS ICAO identifier for current METAR.

ex. KFNL

KGYH 280115Z AUTO 17005KT 10SM BKN032 21/19 A2997 RMK AO2

28 Sep 2020 01:18

Frequency: 127.325

Phone: 864-277-5674

Other Area AWOS: KGMU - KGSP - KLQK - KAND

TAF KGMU 272342Z 2800/2824 18005KT P6SM VCSH SCT015 BKN025 FM280400 20004KT 5SM BR VCSH BKN007 TEMPO 2807/2811 2SM -SHRA BR BKN004 FM281600 19007KT P6SM VCSH SCT015 BKN025 PROB30 2817/2823 4SM TSRA BR OVC015CB